createdAt,value
2022-09-28T00:02:24.632Z,5.66
2022-09-28T00:04:51.483Z,5.53
2022-09-28T00:07:18.596Z,5.46
2022-09-28T00:09:45.418Z,5.65
2022-09-28T00:12:12.235Z,5.43
2022-09-28T00:14:40.688Z,5.61
2022-09-28T00:17:08.436Z,5.74
2022-09-28T00:19:35.236Z,5.82
2022-09-28T00:22:02.232Z,5.82
2022-09-28T00:24:29.731Z,5.83
2022-09-28T00:26:57.298Z,5.85
2022-09-28T00:29:27.027Z,5.79
2022-09-28T00:31:57.316Z,5.68
2022-09-28T00:34:24.097Z,5.64
2022-09-28T00:36:51.137Z,5.55
2022-09-28T00:39:18.369Z,5.45
2022-09-28T00:41:45.969Z,5.61
2022-09-28T00:44:25.450Z,5.55
2022-09-28T00:46:52.636Z,5.57
2022-09-28T00:49:22.820Z,5.45
2022-09-28T00:51:49.671Z,5.52
2022-09-28T00:54:17.208Z,5.53
2022-09-28T00:56:45.982Z,5.48
2022-09-28T00:59:13.332Z,5.47
2022-09-28T01:01:40.348Z,5.50
2022-09-28T01:04:07.452Z,5.52
2022-09-28T01:06:36.346Z,5.43
2022-09-28T01:09:04.759Z,5.47
2022-09-28T01:11:32.414Z,5.41
2022-09-28T01:13:59.628Z,5.42
2022-09-28T01:16:33.933Z,5.49
2022-09-28T01:19:13.114Z,5.48
2022-09-28T01:21:50.872Z,5.46
2022-09-28T01:24:21.722Z,5.43
2022-09-28T01:27:04.758Z,5.53
2022-09-28T01:29:36.226Z,5.65
2022-09-28T01:32:05.988Z,5.55
2022-09-28T01:34:43.782Z,5.53
2022-09-28T01:37:13.256Z,5.61
2022-09-28T01:39:43.283Z,5.63
2022-09-28T01:42:17.517Z,5.61
2022-09-28T01:44:47.137Z,5.57
2022-09-28T01:47:15.331Z,5.57
2022-09-28T01:49:45.472Z,5.65
2022-09-28T01:52:21.706Z,5.80
2022-09-28T01:54:48.957Z,5.66
2022-09-28T01:57:39.273Z,5.64
2022-09-28T02:00:12.101Z,5.63
2022-09-28T02:02:44.743Z,5.59
2022-09-28T02:05:31.718Z,5.72
2022-09-28T02:08:09.862Z,5.73
2022-09-28T02:10:42.557Z,5.77
2022-09-28T02:13:16.525Z,5.82
2022-09-28T02:15:50.875Z,5.76
2022-09-28T02:18:18.131Z,5.60
2022-09-28T02:20:49.837Z,5.50
2022-09-28T02:23:17.558Z,5.44
2022-09-28T02:25:49.936Z,5.41
2022-09-28T02:28:16.743Z,5.33
2022-09-28T02:30:44.535Z,5.32
2022-09-28T02:33:33.145Z,5.43
2022-09-28T02:36:00.892Z,5.35
2022-09-28T02:38:27.888Z,5.43
2022-09-28T02:41:07.273Z,5.34
2022-09-28T02:43:50.096Z,5.34
2022-09-28T02:46:35.117Z,5.32
2022-09-28T02:49:21.731Z,5.45
2022-09-28T02:52:09.180Z,5.47
2022-09-28T02:54:42.167Z,5.52
2022-09-28T02:57:27.948Z,5.53
2022-09-28T03:00:08.136Z,5.64
2022-09-28T03:02:39.128Z,5.52
2022-09-28T03:05:15.843Z,5.64
2022-09-28T03:07:42.590Z,5.73
2022-09-28T03:10:09.545Z,5.69
2022-09-28T03:12:37.392Z,5.96
2022-09-28T03:15:12.796Z,6.03
2022-09-28T03:17:39.822Z,6.25
2022-09-28T03:20:06.851Z,6.20
2022-09-28T03:22:33.705Z,6.31
2022-09-28T03:25:00.682Z,6.47
2022-09-28T03:27:27.449Z,6.56
2022-09-28T03:29:54.190Z,6.46
2022-09-28T03:32:21.168Z,6.47
2022-09-28T03:34:47.890Z,6.45
2022-09-28T03:37:14.717Z,6.34
2022-09-28T03:39:41.719Z,6.33
2022-09-28T03:42:08.565Z,6.00
2022-09-28T03:44:35.499Z,5.92
2022-09-28T03:47:02.602Z,5.98
2022-09-28T03:49:29.383Z,6.09
2022-09-28T03:51:56.215Z,6.08
2022-09-28T03:54:23.459Z,6.26
2022-09-28T03:56:50.442Z,6.18
2022-09-28T03:59:17.385Z,5.98
2022-09-28T04:01:44.479Z,5.99
2022-09-28T04:04:14.594Z,6.03
2022-09-28T04:06:41.459Z,6.06
2022-09-28T04:09:08.460Z,6.00
2022-09-28T04:11:53.209Z,6.01
2022-09-28T04:14:22.520Z,6.03
2022-09-28T04:16:49.475Z,6.26
2022-09-28T04:19:16.246Z,5.97
2022-09-28T04:21:43.312Z,6.15
2022-09-28T04:24:10.800Z,6.20
2022-09-28T04:26:37.612Z,6.32
2022-09-28T04:29:16.840Z,6.26
2022-09-28T04:31:48.342Z,6.31
2022-09-28T04:34:17.549Z,6.34
2022-09-28T04:36:44.839Z,6.43
2022-09-28T04:39:12.464Z,6.53
2022-09-28T04:41:39.508Z,6.58
2022-09-28T04:44:06.526Z,6.67
2022-09-28T04:46:33.767Z,6.59
2022-09-28T04:49:00.959Z,6.62
2022-09-28T04:51:30.302Z,6.58
2022-09-28T04:53:57.002Z,6.48
2022-09-28T04:56:23.955Z,6.37
2022-09-28T04:58:52.891Z,6.41
2022-09-28T05:01:23.704Z,6.33
2022-09-28T05:03:54.209Z,6.30
2022-09-28T05:06:22.808Z,6.18
2022-09-28T05:08:49.584Z,6.18
2022-09-28T05:11:16.972Z,6.19
2022-09-28T05:13:45.634Z,6.13
2022-09-28T05:16:13.476Z,6.04
2022-09-28T05:18:40.460Z,5.96
2022-09-28T05:21:14.518Z,6.04
2022-09-28T05:23:46.450Z,6.03
2022-09-28T05:26:13.427Z,6.07
2022-09-28T05:28:40.138Z,6.07
2022-09-28T05:31:07.283Z,6.05
2022-09-28T05:33:34.172Z,6.06
2022-09-28T05:36:01.873Z,5.91
2022-09-28T05:38:30.253Z,5.90
2022-09-28T05:40:57.772Z,5.95
2022-09-28T05:43:24.937Z,5.96
2022-09-28T05:45:55.602Z,5.96
2022-09-28T05:48:23.066Z,6.14
2022-09-28T05:50:53.140Z,6.11
2022-09-28T05:53:20.447Z,6.15
2022-09-28T05:55:47.436Z,6.25
2022-09-28T05:58:14.311Z,6.20
2022-09-28T06:00:41.487Z,6.24
2022-09-28T06:03:10.566Z,6.40
2022-09-28T06:05:39.538Z,6.32
2022-09-28T06:08:08.423Z,6.33
2022-09-28T06:10:36.026Z,6.37
2022-09-28T06:13:02.907Z,6.22
2022-09-28T06:15:31.184Z,6.61
2022-09-28T06:17:57.981Z,6.78
2022-09-28T06:20:25.633Z,6.81
2022-09-28T06:22:55.903Z,6.93
2022-09-28T06:25:23.406Z,6.90
2022-09-28T06:27:57.444Z,7.08
2022-09-28T06:30:27.293Z,7.12
2022-09-28T06:32:55.164Z,7.18
2022-09-28T06:35:22.427Z,7.33
2022-09-28T06:37:49.745Z,7.46
2022-09-28T06:40:16.853Z,7.51
2022-09-28T06:42:43.776Z,7.44
2022-09-28T06:45:13.647Z,7.49
2022-09-28T06:47:41.992Z,7.66
2022-09-28T06:50:12.405Z,7.89
2022-09-28T06:52:39.467Z,8.12
2022-09-28T06:55:06.648Z,8.26
2022-09-28T06:57:33.660Z,8.24
2022-09-28T07:00:00.772Z,8.17
2022-09-28T07:02:27.578Z,8.36
2022-09-28T07:04:54.325Z,8.57
2022-09-28T07:07:21.314Z,8.88
2022-09-28T07:09:51.300Z,9.11
2022-09-28T07:12:20.915Z,9.44
2022-09-28T07:14:50.478Z,9.55
2022-09-28T07:17:17.525Z,9.48
2022-09-28T07:19:44.637Z,9.58
2022-09-28T07:22:18.480Z,9.38
2022-09-28T07:24:46.083Z,9.33
2022-09-28T07:27:13.391Z,9.19
2022-09-28T07:29:40.125Z,9.38
2022-09-28T07:32:08.547Z,9.65
2022-09-28T07:34:43.664Z,9.62
2022-09-28T07:37:11.807Z,9.13
2022-09-28T07:39:57.964Z,9.01
2022-09-28T07:42:26.364Z,8.68
2022-09-28T07:44:54.208Z,9.42
2022-09-28T07:47:30.840Z,9.54
2022-09-28T07:50:00.999Z,9.37
2022-09-28T07:52:28.945Z,9.49
2022-09-28T07:54:57.535Z,9.86
2022-09-28T07:57:24.581Z,10.19
2022-09-28T07:59:53.729Z,10.40
2022-09-28T08:02:21.250Z,11.07
2022-09-28T08:04:48.921Z,11.94
2022-09-28T08:07:20.424Z,13.09
2022-09-28T08:09:49.915Z,14.54
2022-09-28T08:12:19.776Z,13.85
2022-09-28T08:14:46.961Z,15.09
2022-09-28T08:17:13.966Z,15.08
2022-09-28T08:20:13.095Z,15.24
2022-09-28T08:22:40.214Z,16.81
2022-09-28T08:25:07.363Z,18.01
2022-09-28T08:27:34.192Z,18.15
2022-09-28T08:30:01.166Z,17.80
2022-09-28T08:32:28.319Z,18.24
2022-09-28T08:34:56.183Z,17.91
2022-09-28T08:37:23.192Z,17.67
2022-09-28T08:39:49.900Z,15.92
2022-09-28T08:42:32.648Z,14.99
2022-09-28T08:45:07.300Z,13.59
2022-09-28T08:47:56.337Z,13.26
2022-09-28T08:50:28.843Z,13.15
2022-09-28T08:52:59.439Z,12.77
2022-09-28T08:55:33.851Z,12.79
2022-09-28T08:58:09.744Z,13.31
2022-09-28T09:00:39.941Z,13.14
2022-09-28T09:03:09.880Z,14.23
2022-09-28T09:05:51.806Z,15.26
2022-09-28T09:08:26.991Z,16.43
2022-09-28T09:10:59.759Z,16.29
2022-09-28T09:13:45.915Z,15.03
2022-09-28T09:16:28.509Z,15.53
2022-09-28T09:19:15.385Z,14.38
2022-09-28T09:22:10.051Z,12.82
2022-09-28T09:24:45.594Z,12.42
2022-09-28T09:27:18.540Z,12.64
2022-09-28T09:29:54.706Z,12.69
2022-09-28T09:32:27.507Z,12.76
2022-09-28T09:34:58.009Z,12.95
2022-09-28T09:37:42.972Z,12.33
2022-09-28T09:40:28.804Z,13.02
2022-09-28T09:43:01.416Z,13.50
2022-09-28T09:45:34.797Z,13.65
2022-09-28T09:48:07.687Z,14.05
2022-09-28T09:50:43.686Z,14.61
2022-09-28T09:53:17.062Z,15.34
2022-09-28T09:55:45.616Z,14.24
2022-09-28T09:58:16.293Z,13.84
2022-09-28T10:00:45.520Z,13.21
2022-09-28T10:03:23.541Z,12.53
2022-09-28T10:05:54.541Z,12.48
2022-09-28T10:08:23.896Z,12.64
2022-09-28T10:10:53.186Z,12.13
2022-09-28T10:13:20.244Z,11.56
2022-09-28T10:15:47.940Z,12.03
2022-09-28T10:18:16.202Z,12.16
2022-09-28T10:20:45.229Z,12.40
2022-09-28T10:23:20.366Z,12.75
2022-09-28T10:25:49.383Z,13.70
2022-09-28T10:28:19.693Z,13.93
2022-09-28T10:30:46.783Z,14.11
2022-09-28T10:33:35.035Z,13.79
2022-09-28T10:36:07.113Z,13.80
2022-09-28T10:38:34.354Z,13.97
2022-09-28T10:41:02.148Z,14.23
2022-09-28T10:43:34.684Z,14.85
2022-09-28T10:46:12.318Z,14.95
2022-09-28T10:48:40.065Z,14.61
2022-09-28T10:51:07.666Z,14.62
2022-09-28T10:53:37.245Z,14.44
2022-09-28T10:56:04.376Z,13.75
2022-09-28T10:58:39.580Z,13.20
2022-09-28T11:01:09.706Z,12.98
2022-09-28T11:03:41.801Z,13.25
2022-09-28T11:06:08.975Z,13.43
2022-09-28T11:08:40.553Z,13.55
2022-09-28T11:11:09.127Z,13.71
2022-09-28T11:13:47.336Z,13.14
2022-09-28T11:16:32.921Z,12.89
2022-09-28T11:19:20.779Z,12.74
2022-09-28T11:21:47.652Z,12.63
2022-09-28T11:24:18.873Z,12.09
2022-09-28T11:26:48.130Z,12.20
2022-09-28T11:29:22.717Z,12.26
2022-09-28T11:31:49.640Z,11.79
2022-09-28T11:34:31.062Z,11.15
2022-09-28T11:37:08.358Z,11.34
2022-09-28T11:39:38.831Z,11.61
2022-09-28T11:42:16.516Z,12.15
2022-09-28T11:44:48.420Z,12.06
2022-09-28T11:47:33.720Z,11.97
2022-09-28T11:50:27.227Z,12.05
2022-09-28T11:53:04.034Z,12.18
2022-09-28T11:55:33.816Z,11.90
2022-09-28T11:58:04.356Z,11.64
2022-09-28T12:00:33.619Z,11.61
2022-09-28T12:03:05.368Z,11.68
2022-09-28T12:05:39.304Z,11.76
2022-09-28T12:08:14.965Z,11.88
2022-09-28T12:11:02.003Z,11.90
2022-09-28T12:13:33.412Z,12.11
2022-09-28T12:16:23.426Z,12.19
2022-09-28T12:18:51.234Z,11.65
2022-09-28T12:21:18.012Z,11.98
2022-09-28T12:23:45.259Z,12.00
2022-09-28T12:26:21.665Z,11.81
2022-09-28T12:28:49.898Z,11.15
2022-09-28T12:31:32.136Z,10.93
2022-09-28T12:33:59.199Z,10.56
2022-09-28T12:36:35.959Z,10.31
2022-09-28T12:39:31.347Z,10.36
2022-09-28T12:42:12.116Z,10.35
2022-09-28T12:44:48.244Z,10.37
2022-09-28T12:47:35.519Z,10.30
2022-09-28T12:53:02.926Z,10.23
2022-09-28T12:55:38.541Z,10.05
2022-09-28T12:58:08.736Z,10.09
2022-09-28T13:00:59.481Z,9.95
2022-09-28T13:03:32.677Z,10.22
2022-09-28T13:05:59.437Z,10.23
2022-09-28T13:08:29.333Z,10.10
2022-09-28T13:10:56.640Z,10.04
2022-09-28T13:13:26.604Z,10.06
2022-09-28T13:16:05.869Z,9.94
2022-09-28T13:18:39.116Z,9.72
2022-09-28T13:21:44.846Z,9.62
2022-09-28T13:24:31.468Z,9.03
2022-09-28T13:27:04.621Z,9.26
2022-09-28T13:29:32.193Z,9.57
2022-09-28T13:32:00.131Z,9.35
2022-09-28T13:34:28.856Z,9.26
2022-09-28T13:37:11.363Z,8.88
2022-09-28T13:39:44.301Z,8.78
2022-09-28T13:42:26.613Z,8.75
2022-09-28T13:45:12.327Z,9.05
2022-09-28T13:47:55.228Z,8.64
2022-09-28T13:50:34.543Z,8.71
2022-09-28T13:53:17.188Z,8.48
2022-09-28T13:55:59.084Z,8.51
2022-09-28T13:58:26.068Z,8.73
2022-09-28T14:01:14.440Z,8.90
2022-09-28T14:03:57.361Z,8.99
2022-09-28T14:06:28.282Z,9.04
2022-09-28T14:09:13.741Z,8.95
2022-09-28T14:11:42.623Z,8.89
2022-09-28T14:14:12.120Z,9.09
2022-09-28T14:16:39.638Z,9.22
2022-09-28T14:19:18.818Z,9.25
2022-09-28T14:21:58.345Z,9.44
2022-09-28T14:24:27.441Z,9.61
2022-09-28T14:27:03.535Z,9.62
2022-09-28T14:29:32.209Z,9.58
2022-09-28T14:32:04.778Z,9.38
2022-09-28T14:34:37.957Z,9.67
2022-09-28T14:37:35.665Z,9.83
2022-09-28T14:40:27.505Z,9.96
2022-09-28T14:43:14.019Z,9.71
2022-09-28T14:45:44.864Z,9.87
2022-09-28T14:48:13.979Z,9.93
2022-09-28T14:50:40.838Z,9.79
2022-09-28T14:53:13.563Z,9.79
2022-09-28T14:55:50.263Z,9.86
2022-09-28T14:58:27.718Z,9.71
2022-09-28T15:01:07.621Z,9.95
2022-09-28T15:03:35.637Z,9.86
2022-09-28T15:06:02.843Z,9.97
2022-09-28T15:08:37.448Z,9.93
2022-09-28T15:11:04.859Z,9.82
2022-09-28T15:13:32.204Z,9.91
2022-09-28T15:16:11.587Z,10.09
2022-09-28T15:18:43.957Z,10.21
2022-09-28T15:21:12.105Z,10.27
2022-09-28T15:23:40.585Z,10.28
2022-09-28T15:26:18.655Z,10.24
2022-09-28T15:28:45.635Z,10.28
2022-09-28T15:31:25.699Z,10.31
2022-09-28T15:34:11.651Z,10.28
2022-09-28T15:36:40.243Z,10.25
2022-09-28T15:39:14.083Z,10.19
2022-09-28T15:41:42.814Z,10.15
2022-09-28T15:44:12.856Z,10.09
2022-09-28T15:46:41.482Z,9.85
2022-09-28T15:49:20.596Z,9.87
2022-09-28T15:51:50.119Z,9.87
2022-09-28T15:54:21.703Z,9.77
2022-09-28T15:56:59.713Z,9.59
2022-09-28T15:59:27.162Z,9.36
2022-09-28T16:02:09.645Z,9.07
2022-09-28T16:04:43.101Z,9.01
2022-09-28T16:07:12.825Z,8.98
2022-09-28T16:10:01.561Z,8.87
2022-09-28T16:12:33.451Z,8.85
2022-09-28T16:15:05.317Z,8.89
2022-09-28T16:17:35.188Z,8.90
2022-09-28T16:20:05.711Z,8.90
2022-09-28T16:22:32.822Z,8.77
2022-09-28T16:25:00.991Z,8.80
2022-09-28T16:27:27.985Z,8.69
2022-09-28T16:30:05.276Z,8.60
2022-09-28T16:32:52.756Z,8.35
2022-09-28T16:35:27.252Z,8.31
2022-09-28T16:38:09.399Z,8.46
2022-09-28T16:40:39.880Z,8.51
2022-09-28T16:43:08.004Z,8.57
2022-09-28T16:45:37.645Z,8.51
2022-09-28T16:48:04.605Z,8.53
2022-09-28T16:50:31.565Z,8.09
2022-09-28T16:53:17.889Z,7.90
2022-09-28T16:55:46.166Z,7.80
2022-09-28T16:58:13.211Z,7.71
2022-09-28T17:00:42.984Z,7.72
2022-09-28T17:03:18.429Z,7.74
2022-09-28T17:05:46.034Z,7.67
2022-09-28T17:08:15.769Z,7.65
2022-09-28T17:11:09.707Z,7.60
2022-09-28T17:13:34.151Z,7.54
2022-09-28T17:16:03.292Z,7.59
2022-09-28T17:18:33.459Z,7.60
2022-09-28T17:21:03.378Z,7.64
2022-09-28T17:23:30.311Z,7.61
2022-09-28T17:25:59.186Z,7.58
2022-09-28T17:28:28.466Z,7.47
2022-09-28T17:30:55.449Z,7.40
2022-09-28T17:33:22.490Z,7.39
2022-09-28T17:35:51.771Z,7.51
2022-09-28T17:38:18.576Z,7.39
2022-09-28T17:40:48.318Z,7.47
2022-09-28T17:43:15.476Z,7.49
2022-09-28T17:45:44.910Z,7.40
2022-09-28T17:48:16.131Z,7.56
2022-09-28T17:50:46.400Z,7.53
2022-09-28T17:53:14.141Z,7.53
2022-09-28T17:55:43.041Z,7.50
2022-09-28T17:58:18.105Z,7.44
2022-09-28T18:00:48.873Z,7.33
2022-09-28T18:03:18.054Z,7.45
2022-09-28T18:05:44.973Z,7.54
2022-09-28T18:08:13.291Z,7.63
2022-09-28T18:10:40.403Z,7.65
2022-09-28T18:13:07.225Z,7.52
2022-09-28T18:15:34.192Z,7.73
2022-09-28T18:18:01.442Z,7.63
2022-09-28T18:20:28.674Z,7.60
2022-09-28T18:22:56.200Z,7.51
2022-09-28T18:25:24.055Z,7.49
2022-09-28T18:27:53.200Z,7.43
2022-09-28T18:30:20.154Z,7.45
2022-09-28T18:32:47.393Z,7.40
2022-09-28T18:35:14.522Z,7.33
2022-09-28T18:37:41.509Z,7.40
2022-09-28T18:40:09.799Z,7.31
2022-09-28T18:42:37.951Z,7.41
2022-09-28T18:45:06.513Z,7.38
2022-09-28T18:47:37.765Z,7.41
2022-09-28T18:50:04.917Z,7.37
2022-09-28T18:52:32.128Z,7.34
2022-09-28T18:54:58.931Z,7.27
2022-09-28T18:57:26.523Z,7.11
2022-09-28T18:59:56.336Z,7.05
2022-09-28T19:02:23.535Z,6.76
2022-09-28T19:04:50.393Z,6.65
2022-09-28T19:07:17.338Z,6.62
2022-09-28T19:09:44.290Z,6.58
2022-09-28T19:12:12.741Z,6.66
2022-09-28T19:14:39.961Z,6.77
2022-09-28T19:17:07.012Z,6.58
2022-09-28T19:19:34.038Z,6.43
2022-09-28T19:22:01.211Z,6.43
2022-09-28T19:24:29.239Z,6.28
2022-09-28T19:26:56.887Z,6.38
2022-09-28T19:29:24.308Z,6.17
2022-09-28T19:31:51.830Z,6.14
2022-09-28T19:34:24.371Z,6.10
2022-09-28T19:36:51.420Z,6.16
2022-09-28T19:39:18.484Z,6.17
2022-09-28T19:41:52.800Z,6.19
2022-09-28T19:44:28.535Z,6.20
2022-09-28T19:46:57.810Z,6.10
2022-09-28T19:49:26.104Z,6.10
2022-09-28T19:52:13.830Z,6.07
2022-09-28T19:54:44.034Z,6.12
2022-09-28T19:57:11.772Z,6.04
2022-09-28T19:59:38.970Z,6.08
2022-09-28T20:02:07.077Z,6.01
2022-09-28T20:04:34.039Z,6.08
2022-09-28T20:07:01.923Z,6.01
2022-09-28T20:09:29.135Z,6.16
2022-09-28T20:11:56.253Z,6.12
2022-09-28T20:14:24.685Z,5.95
2022-09-28T20:16:54.877Z,6.01
2022-09-28T20:19:23.166Z,5.86
2022-09-28T20:21:50.558Z,5.82
2022-09-28T20:24:18.025Z,5.77
2022-09-28T20:26:46.012Z,5.89
2022-09-28T20:29:13.077Z,5.82
2022-09-28T20:31:40.065Z,5.83
2022-09-28T20:34:07.032Z,5.73
2022-09-28T20:36:34.469Z,5.61
2022-09-28T20:39:02.116Z,5.58
2022-09-28T20:41:35.650Z,5.63
2022-09-28T20:44:05.604Z,5.80
2022-09-28T20:46:35.634Z,5.88
2022-09-28T20:49:02.758Z,5.91
2022-09-28T20:51:30.177Z,5.80
2022-09-28T20:53:57.951Z,5.94
2022-09-28T20:56:29.111Z,5.75
2022-09-28T20:58:57.021Z,5.71
2022-09-28T21:01:25.344Z,5.68
2022-09-28T21:03:53.648Z,5.76
2022-09-28T21:06:22.110Z,5.81
2022-09-28T21:08:49.722Z,5.77
2022-09-28T21:11:17.853Z,5.75
2022-09-28T21:13:44.928Z,5.85
2022-09-28T21:16:12.775Z,5.88
2022-09-28T21:18:39.802Z,5.98
2022-09-28T21:21:13.252Z,6.03
2022-09-28T21:23:40.280Z,5.95
2022-09-28T21:26:08.680Z,6.05
2022-09-28T21:28:36.829Z,5.99
2022-09-28T21:31:05.701Z,6.09
2022-09-28T21:33:33.080Z,6.18
2022-09-28T21:36:03.907Z,6.28
2022-09-28T21:38:31.150Z,6.40
2022-09-28T21:40:59.059Z,6.43
2022-09-28T21:43:30.056Z,6.41
2022-09-28T21:45:58.268Z,6.42
2022-09-28T21:48:26.271Z,6.27
2022-09-28T21:50:56.688Z,6.25
2022-09-28T21:53:24.447Z,6.10
2022-09-28T21:55:55.887Z,5.96
2022-09-28T21:58:23.897Z,5.89
2022-09-28T22:01:01.329Z,5.82
2022-09-28T22:03:29.223Z,5.80
2022-09-28T22:05:55.984Z,5.89
2022-09-28T22:08:22.968Z,6.03
2022-09-28T22:11:03.347Z,6.02
2022-09-28T22:13:31.190Z,6.05
2022-09-28T22:15:59.121Z,6.02
2022-09-28T22:18:27.035Z,6.02
2022-09-28T22:21:00.496Z,5.87
2022-09-28T22:23:28.195Z,5.92
2022-09-28T22:26:01.780Z,5.98
2022-09-28T22:28:28.899Z,5.98
2022-09-28T22:30:56.262Z,6.01
2022-09-28T22:33:23.419Z,6.01
2022-09-28T22:35:51.435Z,5.84
2022-09-28T22:38:18.912Z,5.99
2022-09-28T22:40:49.738Z,5.97
2022-09-28T22:43:16.936Z,6.16
2022-09-28T22:45:43.831Z,6.20
2022-09-28T22:48:10.655Z,6.29
2022-09-28T22:50:39.023Z,6.43
2022-09-28T22:53:06.244Z,6.45
2022-09-28T22:55:35.753Z,6.45
2022-09-28T22:58:02.769Z,6.48
2022-09-28T23:00:30.800Z,6.44
2022-09-28T23:02:57.990Z,6.48
2022-09-28T23:05:25.087Z,6.33
2022-09-28T23:07:51.771Z,6.29
2022-09-28T23:10:18.580Z,6.08
2022-09-28T23:12:45.568Z,5.90
2022-09-28T23:15:12.553Z,5.92
2022-09-28T23:17:39.380Z,5.86
2022-09-28T23:20:06.491Z,5.83
2022-09-28T23:22:33.317Z,5.81
2022-09-28T23:25:00.101Z,5.73
2022-09-28T23:27:26.998Z,5.63
2022-09-28T23:29:54.463Z,5.74
2022-09-28T23:32:21.248Z,5.59
2022-09-28T23:34:48.219Z,5.45
2022-09-28T23:37:14.976Z,5.43
2022-09-28T23:39:42.393Z,5.30
2022-09-28T23:42:09.354Z,5.25
2022-09-28T23:44:36.599Z,5.17
2022-09-28T23:47:03.401Z,5.18
2022-09-28T23:49:30.639Z,5.17
2022-09-28T23:51:57.335Z,5.15
2022-09-28T23:54:24.062Z,5.20
2022-09-28T23:56:51.181Z,5.13
2022-09-28T23:59:17.884Z,5.04
